< < Back
Terminal Aerodrome Forecast


Current Version              Previous Versions:   1  2  3  4  5  6  7  8  9  

Terminal Aerodrome Forecast

526
FTUS42 KFFC 180100 AAA
TAFATL
TAF AMD
KATL 180130Z 1802/1906 34006KT P6SM SCT250
     FM181500 04005KT P6SM FEW040
     FM182000 31006KT P6SM SCT050
     FM190100 34006KT P6SM SCT200=



Latest METAR

061
SAUS70 KWBC 180700 RRA
MTRATL
METAR KATL 180652Z 00000KT 10SM SCT150 BKN250 19/14 A2994 RMK AO2 SLP131
T01890139


USA.gov is the U.S. government's official web portal to all federal, state and local government web resources and services.